sensor_id;sensor_type;location;lat;lon;timestamp;temperature;humidity
10352;DHT22;5222;49.324;8.420;2022-07-09T00:00:28;22.90;88.00
10352;DHT22;5222;49.324;8.420;2022-07-09T00:02:55;22.90;88.30
10352;DHT22;5222;49.324;8.420;2022-07-09T00:05:22;22.90;88.50
10352;DHT22;5222;49.324;8.420;2022-07-09T00:07:48;22.90;88.40
10352;DHT22;5222;49.324;8.420;2022-07-09T00:10:17;22.80;88.60
10352;DHT22;5222;49.324;8.420;2022-07-09T00:12:44;22.80;88.50
10352;DHT22;5222;49.324;8.420;2022-07-09T00:15:11;22.80;88.90
10352;DHT22;5222;49.324;8.420;2022-07-09T00:17:38;22.70;89.00
10352;DHT22;5222;49.324;8.420;2022-07-09T00:20:06;22.70;89.20
10352;DHT22;5222;49.324;8.420;2022-07-09T00:22:33;22.70;89.20
10352;DHT22;5222;49.324;8.420;2022-07-09T00:25:00;22.60;89.30
10352;DHT22;5222;49.324;8.420;2022-07-09T00:27:28;22.70;89.30
10352;DHT22;5222;49.324;8.420;2022-07-09T00:29:55;22.70;89.30
10352;DHT22;5222;49.324;8.420;2022-07-09T00:32:24;22.70;89.20
10352;DHT22;5222;49.324;8.420;2022-07-09T00:34:51;22.70;89.10
10352;DHT22;5222;49.324;8.420;2022-07-09T00:37:18;22.70;89.40
10352;DHT22;5222;49.324;8.420;2022-07-09T00:39:44;22.60;89.40
10352;DHT22;5222;49.324;8.420;2022-07-09T00:42:11;22.70;89.40
10352;DHT22;5222;49.324;8.420;2022-07-09T00:44:40;22.60;89.90
10352;DHT22;5222;49.324;8.420;2022-07-09T00:47:07;22.60;89.90
10352;DHT22;5222;49.324;8.420;2022-07-09T00:49:38;22.50;90.40
10352;DHT22;5222;49.324;8.420;2022-07-09T00:52:06;22.50;90.20
10352;DHT22;5222;49.324;8.420;2022-07-09T00:54:34;22.50;90.30
10352;DHT22;5222;49.324;8.420;2022-07-09T00:57:03;22.50;90.30
10352;DHT22;5222;49.324;8.420;2022-07-09T00:59:30;22.40;90.70
10352;DHT22;5222;49.324;8.420;2022-07-09T01:02:00;22.40;90.80
10352;DHT22;5222;49.324;8.420;2022-07-09T01:04:27;22.40;90.70
10352;DHT22;5222;49.324;8.420;2022-07-09T01:06:54;22.30;91.30
10352;DHT22;5222;49.324;8.420;2022-07-09T01:09:20;22.30;91.50
10352;DHT22;5222;49.324;8.420;2022-07-09T01:11:48;22.30;91.40
10352;DHT22;5222;49.324;8.420;2022-07-09T01:14:14;22.20;91.60
10352;DHT22;5222;49.324;8.420;2022-07-09T01:16:41;22.20;91.50
10352;DHT22;5222;49.324;8.420;2022-07-09T01:19:09;22.30;91.60
10352;DHT22;5222;49.324;8.420;2022-07-09T01:21:38;22.30;91.40
10352;DHT22;5222;49.324;8.420;2022-07-09T01:24:05;22.30;91.50
10352;DHT22;5222;49.324;8.420;2022-07-09T01:26:32;22.30;91.90
10352;DHT22;5222;49.324;8.420;2022-07-09T01:29:01;22.20;91.70
10352;DHT22;5222;49.324;8.420;2022-07-09T01:31:28;22.20;92.10
10352;DHT22;5222;49.324;8.420;2022-07-09T01:33:55;22.20;91.80
10352;DHT22;5222;49.324;8.420;2022-07-09T01:36:22;22.10;92.00
10352;DHT22;5222;49.324;8.420;2022-07-09T01:38:50;22.10;92.00
10352;DHT22;5222;49.324;8.420;2022-07-09T01:41:17;22.20;92.10
10352;DHT22;5222;49.324;8.420;2022-07-09T01:43:43;22.10;92.00
10352;DHT22;5222;49.324;8.420;2022-07-09T01:46:10;22.10;92.00
10352;DHT22;5222;49.324;8.420;2022-07-09T01:48:37;22.20;91.90
10352;DHT22;5222;49.324;8.420;2022-07-09T01:51:07;22.20;91.60
10352;DHT22;5222;49.324;8.420;2022-07-09T01:53:34;22.20;91.80
10352;DHT22;5222;49.324;8.420;2022-07-09T01:56:05;22.10;92.40
10352;DHT22;5222;49.324;8.420;2022-07-09T01:58:33;22.00;92.90
10352;DHT22;5222;49.324;8.420;2022-07-09T02:01:00;21.90;93.10
10352;DHT22;5222;49.324;8.420;2022-07-09T02:03:27;21.80;93.20
10352;DHT22;5222;49.324;8.420;2022-07-09T02:05:54;21.80;93.40
10352;DHT22;5222;49.324;8.420;2022-07-09T02:08:21;21.90;93.00
10352;DHT22;5222;49.324;8.420;2022-07-09T02:10:48;22.00;92.70
10352;DHT22;5222;49.324;8.420;2022-07-09T02:13:17;22.00;92.30
10352;DHT22;5222;49.324;8.420;2022-07-09T02:15:45;22.00;92.80
10352;DHT22;5222;49.324;8.420;2022-07-09T02:18:12;22.00;92.60
10352;DHT22;5222;49.324;8.420;2022-07-09T02:20:39;22.00;92.40
10352;DHT22;5222;49.324;8.420;2022-07-09T02:23:06;22.00;92.40
10352;DHT22;5222;49.324;8.420;2022-07-09T02:25:33;22.00;92.40
10352;DHT22;5222;49.324;8.420;2022-07-09T02:28:00;21.90;92.40
10352;DHT22;5222;49.324;8.420;2022-07-09T02:30:29;21.90;92.60
10352;DHT22;5222;49.324;8.420;2022-07-09T02:32:55;21.90;93.20
10352;DHT22;5222;49.324;8.420;2022-07-09T02:35:22;21.90;93.20
10352;DHT22;5222;49.324;8.420;2022-07-09T02:37:49;21.80;93.50
10352;DHT22;5222;49.324;8.420;2022-07-09T02:40:16;21.80;93.20
10352;DHT22;5222;49.324;8.420;2022-07-09T02:42:43;21.90;93.10
10352;DHT22;5222;49.324;8.420;2022-07-09T02:45:09;21.90;93.30
10352;DHT22;5222;49.324;8.420;2022-07-09T02:47:38;21.80;93.20
10352;DHT22;5222;49.324;8.420;2022-07-09T02:50:05;21.80;93.30
10352;DHT22;5222;49.324;8.420;2022-07-09T02:52:33;21.80;93.50
10352;DHT22;5222;49.324;8.420;2022-07-09T02:54:59;21.80;93.60
10352;DHT22;5222;49.324;8.420;2022-07-09T02:57:26;21.70;93.90
10352;DHT22;5222;49.324;8.420;2022-07-09T02:59:53;21.70;94.10
10352;DHT22;5222;49.324;8.420;2022-07-09T03:02:20;21.60;94.00
10352;DHT22;5222;49.324;8.420;2022-07-09T03:04:48;21.60;94.30
10352;DHT22;5222;49.324;8.420;2022-07-09T03:07:16;21.50;94.50
10352;DHT22;5222;49.324;8.420;2022-07-09T03:09:44;21.50;94.60
10352;DHT22;5222;49.324;8.420;2022-07-09T03:12:11;21.50;94.70
10352;DHT22;5222;49.324;8.420;2022-07-09T03:14:38;21.50;94.70
10352;DHT22;5222;49.324;8.420;2022-07-09T03:17:04;21.50;94.30
10352;DHT22;5222;49.324;8.420;2022-07-09T03:19:31;21.50;94.10
10352;DHT22;5222;49.324;8.420;2022-07-09T03:21:59;21.50;94.00
10352;DHT22;5222;49.324;8.420;2022-07-09T03:24:26;21.50;93.80
10352;DHT22;5222;49.324;8.420;2022-07-09T03:26:53;21.60;94.10
10352;DHT22;5222;49.324;8.420;2022-07-09T03:29:20;21.50;94.70
10352;DHT22;5222;49.324;8.420;2022-07-09T03:31:47;21.50;94.80
10352;DHT22;5222;49.324;8.420;2022-07-09T03:34:14;21.50;94.60
10352;DHT22;5222;49.324;8.420;2022-07-09T03:36:41;21.40;94.60
10352;DHT22;5222;49.324;8.420;2022-07-09T03:39:09;21.50;94.50
10352;DHT22;5222;49.324;8.420;2022-07-09T03:41:36;21.50;94.40
10352;DHT22;5222;49.324;8.420;2022-07-09T03:44:03;21.50;94.40
10352;DHT22;5222;49.324;8.420;2022-07-09T03:46:30;21.50;94.50
10352;DHT22;5222;49.324;8.420;2022-07-09T03:48:57;21.50;94.80
10352;DHT22;5222;49.324;8.420;2022-07-09T03:51:23;21.40;95.20
10352;DHT22;5222;49.324;8.420;2022-07-09T03:53:50;21.30;95.40
10352;DHT22;5222;49.324;8.420;2022-07-09T03:56:18;21.30;95.50
10352;DHT22;5222;49.324;8.420;2022-07-09T03:58:46;21.30;95.60
10352;DHT22;5222;49.324;8.420;2022-07-09T04:01:13;21.20;95.60
10352;DHT22;5222;49.324;8.420;2022-07-09T04:03:40;21.20;95.80
10352;DHT22;5222;49.324;8.420;2022-07-09T04:06:06;21.20;95.80
10352;DHT22;5222;49.324;8.420;2022-07-09T04:08:33;21.20;96.10
10352;DHT22;5222;49.324;8.420;2022-07-09T04:11:00;21.20;95.90
10352;DHT22;5222;49.324;8.420;2022-07-09T04:13:29;21.20;95.70
10352;DHT22;5222;49.324;8.420;2022-07-09T04:15:56;21.10;96.00
10352;DHT22;5222;49.324;8.420;2022-07-09T04:18:22;21.10;95.80
10352;DHT22;5222;49.324;8.420;2022-07-09T04:20:49;21.10;95.90
10352;DHT22;5222;49.324;8.420;2022-07-09T04:23:16;21.10;95.90
10352;DHT22;5222;49.324;8.420;2022-07-09T04:25:43;21.20;95.80
10352;DHT22;5222;49.324;8.420;2022-07-09T04:28:11;21.10;96.00
10352;DHT22;5222;49.324;8.420;2022-07-09T04:30:39;21.20;96.10
10352;DHT22;5222;49.324;8.420;2022-07-09T04:33:06;21.20;96.30
10352;DHT22;5222;49.324;8.420;2022-07-09T04:35:32;21.20;96.30
10352;DHT22;5222;49.324;8.420;2022-07-09T04:38:01;21.30;96.30
10352;DHT22;5222;49.324;8.420;2022-07-09T04:40:27;21.30;96.00
10352;DHT22;5222;49.324;8.420;2022-07-09T04:42:54;21.40;95.90
10352;DHT22;5222;49.324;8.420;2022-07-09T04:45:21;21.40;95.80
10352;DHT22;5222;49.324;8.420;2022-07-09T04:47:49;21.50;95.50
10352;DHT22;5222;49.324;8.420;2022-07-09T04:50:16;21.50;95.40
10352;DHT22;5222;49.324;8.420;2022-07-09T04:52:43;21.60;95.30
10352;DHT22;5222;49.324;8.420;2022-07-09T04:55:10;21.70;95.20
10352;DHT22;5222;49.324;8.420;2022-07-09T04:57:37;21.90;95.30
10352;DHT22;5222;49.324;8.420;2022-07-09T05:00:05;22.10;95.20
10352;DHT22;5222;49.324;8.420;2022-07-09T05:02:32;22.40;94.80
10352;DHT22;5222;49.324;8.420;2022-07-09T05:05:00;22.60;94.40
10352;DHT22;5222;49.324;8.420;2022-07-09T05:07:29;22.90;93.90
10352;DHT22;5222;49.324;8.420;2022-07-09T05:09:56;23.20;93.00
10352;DHT22;5222;49.324;8.420;2022-07-09T05:12:23;23.50;92.60
10352;DHT22;5222;49.324;8.420;2022-07-09T05:14:50;23.70;92.00
10352;DHT22;5222;49.324;8.420;2022-07-09T05:17:17;24.00;91.30
10352;DHT22;5222;49.324;8.420;2022-07-09T05:19:44;24.30;90.50
10352;DHT22;5222;49.324;8.420;2022-07-09T05:22:12;24.60;89.70
10352;DHT22;5222;49.324;8.420;2022-07-09T05:24:39;24.80;88.60
10352;DHT22;5222;49.324;8.420;2022-07-09T05:27:06;24.80;88.50
10352;DHT22;5222;49.324;8.420;2022-07-09T05:29:34;24.80;88.10
10352;DHT22;5222;49.324;8.420;2022-07-09T05:32:00;25.00;87.80
10352;DHT22;5222;49.324;8.420;2022-07-09T05:34:27;25.20;87.00
10352;DHT22;5222;49.324;8.420;2022-07-09T05:36:54;25.40;86.50
10352;DHT22;5222;49.324;8.420;2022-07-09T05:39:22;25.50;86.30
10352;DHT22;5222;49.324;8.420;2022-07-09T05:41:49;25.60;85.70
10352;DHT22;5222;49.324;8.420;2022-07-09T05:44:16;25.60;85.60
10352;DHT22;5222;49.324;8.420;2022-07-09T05:46:43;25.60;85.50
10352;DHT22;5222;49.324;8.420;2022-07-09T05:49:10;25.80;85.00
10352;DHT22;5222;49.324;8.420;2022-07-09T05:51:37;26.00;84.80
10352;DHT22;5222;49.324;8.420;2022-07-09T05:54:03;26.10;84.20
10352;DHT22;5222;49.324;8.420;2022-07-09T05:56:32;26.30;83.30
10352;DHT22;5222;49.324;8.420;2022-07-09T05:59:00;26.30;83.60
10352;DHT22;5222;49.324;8.420;2022-07-09T06:01:27;26.50;83.10
10352;DHT22;5222;49.324;8.420;2022-07-09T06:03:54;26.70;82.50
10352;DHT22;5222;49.324;8.420;2022-07-09T06:06:21;26.80;82.40
10352;DHT22;5222;49.324;8.420;2022-07-09T06:08:48;27.00;81.60
10352;DHT22;5222;49.324;8.420;2022-07-09T06:11:15;27.00;81.50
10352;DHT22;5222;49.324;8.420;2022-07-09T06:13:43;26.90;81.70
10352;DHT22;5222;49.324;8.420;2022-07-09T06:16:10;26.80;81.70
10352;DHT22;5222;49.324;8.420;2022-07-09T06:18:37;27.00;81.70
10352;DHT22;5222;49.324;8.420;2022-07-09T06:21:04;27.10;81.30
10352;DHT22;5222;49.324;8.420;2022-07-09T06:23:30;27.10;81.30
10352;DHT22;5222;49.324;8.420;2022-07-09T06:25:57;27.40;80.90
10352;DHT22;5222;49.324;8.420;2022-07-09T06:28:24;27.60;80.30
10352;DHT22;5222;49.324;8.420;2022-07-09T06:30:52;27.90;80.00
10352;DHT22;5222;49.324;8.420;2022-07-09T06:33:19;28.10;79.40
10352;DHT22;5222;49.324;8.420;2022-07-09T06:35:46;28.40;79.00
10352;DHT22;5222;49.324;8.420;2022-07-09T06:38:12;28.70;78.50
10352;DHT22;5222;49.324;8.420;2022-07-09T06:40:39;28.80;77.90
10352;DHT22;5222;49.324;8.420;2022-07-09T06:43:06;28.80;78.10
10352;DHT22;5222;49.324;8.420;2022-07-09T06:45:34;29.10;77.90
10352;DHT22;5222;49.324;8.420;2022-07-09T06:48:03;29.30;77.10
10352;DHT22;5222;49.324;8.420;2022-07-09T06:50:30;29.40;77.20
10352;DHT22;5222;49.324;8.420;2022-07-09T06:52:57;29.50;77.00
10352;DHT22;5222;49.324;8.420;2022-07-09T06:55:24;29.70;76.40
10352;DHT22;5222;49.324;8.420;2022-07-09T06:57:51;30.00;76.10
10352;DHT22;5222;49.324;8.420;2022-07-09T07:00:17;30.30;75.60
10352;DHT22;5222;49.324;8.420;2022-07-09T07:02:44;30.60;74.90
10352;DHT22;5222;49.324;8.420;2022-07-09T07:05:12;30.80;74.40
10352;DHT22;5222;49.324;8.420;2022-07-09T07:07:39;30.90;74.40
10352;DHT22;5222;49.324;8.420;2022-07-09T07:10:07;31.00;74.10
10352;DHT22;5222;49.324;8.420;2022-07-09T07:12:34;31.30;73.90
10352;DHT22;5222;49.324;8.420;2022-07-09T07:15:01;31.50;73.30
10352;DHT22;5222;49.324;8.420;2022-07-09T07:17:28;31.50;72.70
10352;DHT22;5222;49.324;8.420;2022-07-09T07:19:55;31.60;72.60
10352;DHT22;5222;49.324;8.420;2022-07-09T07:22:23;31.60;72.50
10352;DHT22;5222;49.324;8.420;2022-07-09T07:24:50;31.70;72.40
10352;DHT22;5222;49.324;8.420;2022-07-09T07:27:16;31.90;72.30
10352;DHT22;5222;49.324;8.420;2022-07-09T07:29:43;31.80;72.10
10352;DHT22;5222;49.324;8.420;2022-07-09T07:32:10;31.80;72.40
10352;DHT22;5222;49.324;8.420;2022-07-09T07:34:37;31.90;72.30
10352;DHT22;5222;49.324;8.420;2022-07-09T07:37:04;32.00;71.80
10352;DHT22;5222;49.324;8.420;2022-07-09T07:39:32;32.20;71.90
10352;DHT22;5222;49.324;8.420;2022-07-09T07:41:59;32.50;71.50
10352;DHT22;5222;49.324;8.420;2022-07-09T07:44:26;32.60;71.40
10352;DHT22;5222;49.324;8.420;2022-07-09T07:46:54;32.60;70.90
10352;DHT22;5222;49.324;8.420;2022-07-09T07:49:21;32.60;71.10
10352;DHT22;5222;49.324;8.420;2022-07-09T07:51:47;32.40;71.30
10352;DHT22;5222;49.324;8.420;2022-07-09T07:54:14;32.20;71.70
10352;DHT22;5222;49.324;8.420;2022-07-09T07:56:43;32.20;71.70
10352;DHT22;5222;49.324;8.420;2022-07-09T07:59:09;32.40;71.60
10352;DHT22;5222;49.324;8.420;2022-07-09T08:01:36;32.70;70.70
10352;DHT22;5222;49.324;8.420;2022-07-09T08:04:04;33.10;70.00
10352;DHT22;5222;49.324;8.420;2022-07-09T08:06:31;33.50;69.30
10352;DHT22;5222;49.324;8.420;2022-07-09T08:08:58;33.50;69.20
10352;DHT22;5222;49.324;8.420;2022-07-09T08:11:24;33.30;69.20
10352;DHT22;5222;49.324;8.420;2022-07-09T08:13:52;33.40;69.50
10352;DHT22;5222;49.324;8.420;2022-07-09T08:16:19;33.70;69.50
10352;DHT22;5222;49.324;8.420;2022-07-09T08:18:47;34.00;68.90
10352;DHT22;5222;49.324;8.420;2022-07-09T08:21:13;34.20;68.40
10352;DHT22;5222;49.324;8.420;2022-07-09T08:23:40;34.40;68.70
10352;DHT22;5222;49.324;8.420;2022-07-09T08:26:22;34.50;68.10
10352;DHT22;5222;49.324;8.420;2022-07-09T08:28:49;34.80;67.40
10352;DHT22;5222;49.324;8.420;2022-07-09T08:31:17;35.10;66.90
10352;DHT22;5222;49.324;8.420;2022-07-09T08:33:44;35.20;66.70
10352;DHT22;5222;49.324;8.420;2022-07-09T08:36:11;35.40;66.50
10352;DHT22;5222;49.324;8.420;2022-07-09T08:38:38;35.30;66.50
10352;DHT22;5222;49.324;8.420;2022-07-09T08:41:05;35.10;66.90
10352;DHT22;5222;49.324;8.420;2022-07-09T08:43:33;34.90;67.50
10352;DHT22;5222;49.324;8.420;2022-07-09T08:46:01;34.10;67.70
10352;DHT22;5222;49.324;8.420;2022-07-09T08:48:32;34.20;68.40
10352;DHT22;5222;49.324;8.420;2022-07-09T08:51:00;34.60;67.90
10352;DHT22;5222;49.324;8.420;2022-07-09T08:53:27;34.70;67.30
10352;DHT22;5222;49.324;8.420;2022-07-09T08:55:56;34.30;67.90
10352;DHT22;5222;49.324;8.420;2022-07-09T08:58:24;34.00;68.20
10352;DHT22;5222;49.324;8.420;2022-07-09T09:00:51;33.90;67.90
10352;DHT22;5222;49.324;8.420;2022-07-09T09:03:18;34.20;67.40
10352;DHT22;5222;49.324;8.420;2022-07-09T09:06:00;34.30;67.10
10352;DHT22;5222;49.324;8.420;2022-07-09T09:08:27;34.20;67.10
10352;DHT22;5222;49.324;8.420;2022-07-09T09:10:54;34.10;67.50
10352;DHT22;5222;49.324;8.420;2022-07-09T09:13:21;33.80;67.80
10352;DHT22;5222;49.324;8.420;2022-07-09T09:15:48;33.50;68.60
10352;DHT22;5222;49.324;8.420;2022-07-09T09:18:14;33.20;68.90
10352;DHT22;5222;49.324;8.420;2022-07-09T09:20:45;32.70;69.50
10352;DHT22;5222;49.324;8.420;2022-07-09T09:23:16;32.60;69.80
10352;DHT22;5222;49.324;8.420;2022-07-09T09:25:43;32.90;70.00
10352;DHT22;5222;49.324;8.420;2022-07-09T09:28:11;33.30;69.80
10352;DHT22;5222;49.324;8.420;2022-07-09T09:30:42;33.40;69.90
10352;DHT22;5222;49.324;8.420;2022-07-09T09:33:09;33.20;69.30
10352;DHT22;5222;49.324;8.420;2022-07-09T09:35:42;33.10;69.10
10352;DHT22;5222;49.324;8.420;2022-07-09T09:38:11;33.20;68.40
10352;DHT22;5222;49.324;8.420;2022-07-09T09:40:38;33.40;68.90
10352;DHT22;5222;49.324;8.420;2022-07-09T09:43:05;33.30;68.40
10352;DHT22;5222;49.324;8.420;2022-07-09T09:45:34;33.00;68.10
10352;DHT22;5222;49.324;8.420;2022-07-09T09:48:05;32.90;68.20
10352;DHT22;5222;49.324;8.420;2022-07-09T09:50:32;33.00;68.00
10352;DHT22;5222;49.324;8.420;2022-07-09T09:53:01;33.10;68.00
10352;DHT22;5222;49.324;8.420;2022-07-09T09:55:30;33.40;67.80
10352;DHT22;5222;49.324;8.420;2022-07-09T09:57:58;33.70;67.50
10352;DHT22;5222;49.324;8.420;2022-07-09T10:00:26;34.10;67.00
10352;DHT22;5222;49.324;8.420;2022-07-09T10:02:53;33.90;67.40
10352;DHT22;5222;49.324;8.420;2022-07-09T10:05:19;34.40;66.10
10352;DHT22;5222;49.324;8.420;2022-07-09T10:07:46;34.40;65.00
10352;DHT22;5222;49.324;8.420;2022-07-09T10:10:17;34.30;65.10
10352;DHT22;5222;49.324;8.420;2022-07-09T10:12:46;34.20;66.00
10352;DHT22;5222;49.324;8.420;2022-07-09T10:15:23;33.70;66.80
10352;DHT22;5222;49.324;8.420;2022-07-09T10:17:52;33.20;66.90
10352;DHT22;5222;49.324;8.420;2022-07-09T10:20:29;33.00;67.70
10352;DHT22;5222;49.324;8.420;2022-07-09T10:22:59;32.60;67.90
10352;DHT22;5222;49.324;8.420;2022-07-09T10:25:28;32.30;68.50
10352;DHT22;5222;49.324;8.420;2022-07-09T10:27:57;32.10;68.70
10352;DHT22;5222;49.324;8.420;2022-07-09T10:30:26;31.90;69.70
10352;DHT22;5222;49.324;8.420;2022-07-09T10:33:05;31.60;70.30
10352;DHT22;5222;49.324;8.420;2022-07-09T10:35:39;31.70;71.00
10352;DHT22;5222;49.324;8.420;2022-07-09T10:38:06;32.10;70.50
10352;DHT22;5222;49.324;8.420;2022-07-09T10:40:38;32.40;69.70
10352;DHT22;5222;49.324;8.420;2022-07-09T10:43:06;32.70;69.70
10352;DHT22;5222;49.324;8.420;2022-07-09T10:45:37;33.20;68.80
10352;DHT22;5222;49.324;8.420;2022-07-09T10:48:06;33.40;68.30
10352;DHT22;5222;49.324;8.420;2022-07-09T10:50:37;33.70;67.70
10352;DHT22;5222;49.324;8.420;2022-07-09T10:53:04;34.00;66.70
10352;DHT22;5222;49.324;8.420;2022-07-09T10:55:31;34.40;66.50
10352;DHT22;5222;49.324;8.420;2022-07-09T10:57:58;34.60;65.40
10352;DHT22;5222;49.324;8.420;2022-07-09T11:00:28;34.10;66.00
10352;DHT22;5222;49.324;8.420;2022-07-09T11:02:56;34.20;66.70
10352;DHT22;5222;49.324;8.420;2022-07-09T11:05:24;34.20;66.50
10352;DHT22;5222;49.324;8.420;2022-07-09T11:08:09;34.20;67.20
10352;DHT22;5222;49.324;8.420;2022-07-09T11:10:37;34.20;67.10
10352;DHT22;5222;49.324;8.420;2022-07-09T11:13:06;34.50;67.50
10352;DHT22;5222;49.324;8.420;2022-07-09T11:15:36;34.70;65.80
10352;DHT22;5222;49.324;8.420;2022-07-09T11:18:04;34.90;65.70
10352;DHT22;5222;49.324;8.420;2022-07-09T11:20:36;34.90;65.40
10352;DHT22;5222;49.324;8.420;2022-07-09T11:23:05;35.20;65.30
10352;DHT22;5222;49.324;8.420;2022-07-09T11:25:32;35.80;63.90
10352;DHT22;5222;49.324;8.420;2022-07-09T11:28:00;35.90;64.00
10352;DHT22;5222;49.324;8.420;2022-07-09T11:30:28;35.80;63.40
10352;DHT22;5222;49.324;8.420;2022-07-09T11:32:56;35.70;63.10
10352;DHT22;5222;49.324;8.420;2022-07-09T11:35:24;35.40;63.30
10352;DHT22;5222;49.324;8.420;2022-07-09T11:37:52;35.40;64.40
10352;DHT22;5222;49.324;8.420;2022-07-09T11:40:19;35.40;64.80
10352;DHT22;5222;49.324;8.420;2022-07-09T11:42:46;35.30;63.80
10352;DHT22;5222;49.324;8.420;2022-07-09T11:45:14;35.30;64.00
10352;DHT22;5222;49.324;8.420;2022-07-09T11:47:41;35.10;63.50
10352;DHT22;5222;49.324;8.420;2022-07-09T11:50:14;35.20;63.50
10352;DHT22;5222;49.324;8.420;2022-07-09T11:52:44;35.30;63.50
10352;DHT22;5222;49.324;8.420;2022-07-09T11:55:13;35.40;64.50
10352;DHT22;5222;49.324;8.420;2022-07-09T11:57:51;35.00;64.40
10352;DHT22;5222;49.324;8.420;2022-07-09T12:00:21;34.50;64.90
10352;DHT22;5222;49.324;8.420;2022-07-09T12:02:49;34.30;64.90
10352;DHT22;5222;49.324;8.420;2022-07-09T12:05:26;34.30;65.30
10352;DHT22;5222;49.324;8.420;2022-07-09T12:07:55;34.60;65.70
10352;DHT22;5222;49.324;8.420;2022-07-09T12:10:27;34.80;65.90
10352;DHT22;5222;49.324;8.420;2022-07-09T12:12:54;34.60;65.20
10352;DHT22;5222;49.324;8.420;2022-07-09T12:15:21;34.30;65.20
10352;DHT22;5222;49.324;8.420;2022-07-09T12:17:51;33.80;65.60
10352;DHT22;5222;49.324;8.420;2022-07-09T12:20:20;33.70;66.40
10352;DHT22;5222;49.324;8.420;2022-07-09T12:22:48;34.00;66.70
10352;DHT22;5222;49.324;8.420;2022-07-09T12:25:15;34.50;65.40
10352;DHT22;5222;49.324;8.420;2022-07-09T12:27:42;35.00;64.50
10352;DHT22;5222;49.324;8.420;2022-07-09T12:30:10;35.40;63.70
10352;DHT22;5222;49.324;8.420;2022-07-09T12:32:37;35.40;63.20
10352;DHT22;5222;49.324;8.420;2022-07-09T12:35:04;35.30;62.90
10352;DHT22;5222;49.324;8.420;2022-07-09T12:37:32;35.20;63.20
10352;DHT22;5222;49.324;8.420;2022-07-09T12:40:01;35.50;62.90
10352;DHT22;5222;49.324;8.420;2022-07-09T12:42:28;35.50;62.60
10352;DHT22;5222;49.324;8.420;2022-07-09T12:44:54;35.80;62.20
10352;DHT22;5222;49.324;8.420;2022-07-09T12:47:21;36.10;61.50
10352;DHT22;5222;49.324;8.420;2022-07-09T12:49:48;36.10;62.20
10352;DHT22;5222;49.324;8.420;2022-07-09T12:52:15;35.70;62.50
10352;DHT22;5222;49.324;8.420;2022-07-09T12:54:42;35.30;62.90
10352;DHT22;5222;49.324;8.420;2022-07-09T12:57:10;35.20;63.20
10352;DHT22;5222;49.324;8.420;2022-07-09T12:59:38;35.00;63.00
10352;DHT22;5222;49.324;8.420;2022-07-09T13:02:05;35.10;63.20
10352;DHT22;5222;49.324;8.420;2022-07-09T13:04:32;35.20;62.60
10352;DHT22;5222;49.324;8.420;2022-07-09T13:06:59;34.80;62.90
10352;DHT22;5222;49.324;8.420;2022-07-09T13:09:27;34.40;63.50
10352;DHT22;5222;49.324;8.420;2022-07-09T13:11:56;34.00;64.30
10352;DHT22;5222;49.324;8.420;2022-07-09T13:14:24;33.70;64.90
10352;DHT22;5222;49.324;8.420;2022-07-09T13:16:51;33.70;65.00
10352;DHT22;5222;49.324;8.420;2022-07-09T13:19:18;33.80;65.40
10352;DHT22;5222;49.324;8.420;2022-07-09T13:21:44;33.70;65.40
10352;DHT22;5222;49.324;8.420;2022-07-09T13:24:11;33.70;65.60
10352;DHT22;5222;49.324;8.420;2022-07-09T13:26:38;34.10;65.10
10352;DHT22;5222;49.324;8.420;2022-07-09T13:29:04;34.50;64.10
10352;DHT22;5222;49.324;8.420;2022-07-09T13:31:32;34.70;63.50
10352;DHT22;5222;49.324;8.420;2022-07-09T13:33:59;35.20;63.20
10352;DHT22;5222;49.324;8.420;2022-07-09T13:36:26;35.40;62.20
10352;DHT22;5222;49.324;8.420;2022-07-09T13:38:53;35.60;62.70
10352;DHT22;5222;49.324;8.420;2022-07-09T13:41:19;35.50;62.40
10352;DHT22;5222;49.324;8.420;2022-07-09T13:43:46;35.20;63.20
10352;DHT22;5222;49.324;8.420;2022-07-09T13:46:13;35.10;62.90
10352;DHT22;5222;49.324;8.420;2022-07-09T13:48:41;35.40;62.50
10352;DHT22;5222;49.324;8.420;2022-07-09T13:51:08;35.80;61.40
10352;DHT22;5222;49.324;8.420;2022-07-09T13:53:35;35.60;62.40
10352;DHT22;5222;49.324;8.420;2022-07-09T13:56:02;35.40;62.40
10352;DHT22;5222;49.324;8.420;2022-07-09T13:58:30;35.50;62.50
10352;DHT22;5222;49.324;8.420;2022-07-09T14:00:56;35.70;61.70
10352;DHT22;5222;49.324;8.420;2022-07-09T14:03:23;35.60;62.50
10352;DHT22;5222;49.324;8.420;2022-07-09T14:05:51;35.90;62.10
10352;DHT22;5222;49.324;8.420;2022-07-09T14:08:18;36.10;61.10
10352;DHT22;5222;49.324;8.420;2022-07-09T14:10:45;35.80;61.90
10352;DHT22;5222;49.324;8.420;2022-07-09T14:13:11;35.40;62.40
10352;DHT22;5222;49.324;8.420;2022-07-09T14:15:38;35.30;62.60
10352;DHT22;5222;49.324;8.420;2022-07-09T14:18:05;35.10;63.30
10352;DHT22;5222;49.324;8.420;2022-07-09T14:20:32;34.60;63.00
10352;DHT22;5222;49.324;8.420;2022-07-09T14:23:00;34.30;63.40
10352;DHT22;5222;49.324;8.420;2022-07-09T14:25:27;33.80;63.20
10352;DHT22;5222;49.324;8.420;2022-07-09T14:27:53;33.40;63.30
10352;DHT22;5222;49.324;8.420;2022-07-09T14:30:20;33.50;63.30
10352;DHT22;5222;49.324;8.420;2022-07-09T14:32:47;33.80;63.60
10352;DHT22;5222;49.324;8.420;2022-07-09T14:35:13;33.70;63.50
10352;DHT22;5222;49.324;8.420;2022-07-09T14:37:41;33.70;64.00
10352;DHT22;5222;49.324;8.420;2022-07-09T14:40:10;33.70;63.20
10352;DHT22;5222;49.324;8.420;2022-07-09T14:42:37;33.60;63.40
10352;DHT22;5222;49.324;8.420;2022-07-09T14:45:06;33.30;64.10
10352;DHT22;5222;49.324;8.420;2022-07-09T14:47:33;33.20;64.40
10352;DHT22;5222;49.324;8.420;2022-07-09T14:50:00;33.30;65.40
10352;DHT22;5222;49.324;8.420;2022-07-09T14:52:27;33.20;64.70
10352;DHT22;5222;49.324;8.420;2022-07-09T14:54:53;33.20;65.20
10352;DHT22;5222;49.324;8.420;2022-07-09T14:57:21;33.20;65.10
10352;DHT22;5222;49.324;8.420;2022-07-09T14:59:49;33.00;65.60
10352;DHT22;5222;49.324;8.420;2022-07-09T15:02:16;33.10;65.80
10352;DHT22;5222;49.324;8.420;2022-07-09T15:04:42;33.00;65.80
10352;DHT22;5222;49.324;8.420;2022-07-09T15:07:09;32.80;66.10
10352;DHT22;5222;49.324;8.420;2022-07-09T15:09:36;32.70;66.20
10352;DHT22;5222;49.324;8.420;2022-07-09T15:12:03;32.60;66.30
10352;DHT22;5222;49.324;8.420;2022-07-09T15:14:31;32.60;67.20
10352;DHT22;5222;49.324;8.420;2022-07-09T15:16:58;32.60;67.10
10352;DHT22;5222;49.324;8.420;2022-07-09T15:19:24;32.70;65.80
10352;DHT22;5222;49.324;8.420;2022-07-09T15:21:53;32.90;65.90
10352;DHT22;5222;49.324;8.420;2022-07-09T15:24:19;33.00;65.60
10352;DHT22;5222;49.324;8.420;2022-07-09T15:26:46;33.30;65.20
10352;DHT22;5222;49.324;8.420;2022-07-09T15:29:13;33.70;65.00
10352;DHT22;5222;49.324;8.420;2022-07-09T15:31:41;33.80;63.70
10352;DHT22;5222;49.324;8.420;2022-07-09T15:34:08;33.90;64.80
10352;DHT22;5222;49.324;8.420;2022-07-09T15:36:34;33.90;62.80
10352;DHT22;5222;49.324;8.420;2022-07-09T15:39:01;33.90;63.40
10352;DHT22;5222;49.324;8.420;2022-07-09T15:41:28;33.90;63.20
10352;DHT22;5222;49.324;8.420;2022-07-09T15:43:59;33.90;64.10
10352;DHT22;5222;49.324;8.420;2022-07-09T15:46:29;34.00;63.50